Time;durP1;ratioP1;P1;durP2;ratioP2;P2;SDS_P1;SDS_P2;PMS_P1;PMS_P2;Temp;Humidity;BMP_temperature;BMP_pressure;BME280_temperature;BME280_humidity;BME280_pressure;Samples;Min_cycle;Max_cycle;Signal;HPM_P1;HPM_P2
2021/01/21 00:00:39;;;;;;;45.10;23.23;;;2.50;77.20;;;1.61;61.47;93909.03;5030088;28;20308;-86
2021/01/21 00:03:06;;;;;;;42.10;22.83;;;2.60;77.30;;;1.67;61.13;93915.34;5035352;28;20212;-86
2021/01/21 00:05:33;;;;;;;39.60;22.90;;;2.60;77.30;;;1.65;60.89;93909.53;5052983;28;20216;-86
2021/01/21 00:08:00;;;;;;;40.15;22.60;;;2.60;77.30;;;1.72;61.18;93905.34;5052979;28;20198;-85
2021/01/21 00:10:27;;;;;;;52.15;23.95;;;2.60;77.30;;;1.73;61.25;93902.59;5057007;28;20258;-85
2021/01/21 00:12:54;;;;;;;40.50;21.98;;;2.70;77.40;;;1.77;61.13;93905.69;5038290;28;20204;-86
2021/01/21 00:15:21;;;;;;;41.08;22.15;;;2.70;77.40;;;1.79;61.32;93910.69;5054078;28;20230;-86
2021/01/21 00:17:48;;;;;;;43.53;24.00;;;2.70;77.40;;;1.82;61.16;93894.81;5035984;28;20262;-86
2021/01/21 00:20:16;;;;;;;45.42;23.05;;;2.70;77.50;;;1.84;61.26;93898.06;5059246;28;20223;-86
2021/01/21 00:22:43;;;;;;;48.45;24.08;;;2.80;77.50;;;1.91;61.67;93907.56;5032406;28;20208;-87
2021/01/21 00:25:11;;;;;;;45.05;23.60;;;2.80;77.50;;;1.94;61.37;93910.81;5035430;28;20685;-86
2021/01/21 00:27:38;;;;;;;41.80;23.30;;;2.80;77.50;;;1.96;61.38;93909.69;5029679;28;20208;-87
2021/01/21 00:30:11;;;;;;;51.55;24.95;;;2.80;78.30;;;1.99;61.30;93900.78;5036702;28;20223;-86
2021/01/21 00:32:38;;;;;;;50.35;23.92;;;2.90;77.60;;;2.01;61.19;93906.59;5051874;28;20650;-87
2021/01/21 00:35:06;;;;;;;46.15;24.20;;;2.90;77.50;;;2.01;61.18;93891.09;5019347;28;20232;-87
2021/01/21 00:37:34;;;;;;;45.03;23.52;;;2.90;77.50;;;2.05;61.42;93887.19;5051380;28;20215;-87
2021/01/21 00:40:01;;;;;;;55.00;24.58;;;2.90;77.50;;;2.07;61.35;93888.63;5050564;28;20212;-86
2021/01/21 00:42:28;;;;;;;47.10;24.50;;;3.00;77.60;;;2.07;61.52;93875.72;5034915;28;20207;-87
2021/01/21 00:44:56;;;;;;;56.33;24.00;;;2.90;77.50;;;2.08;61.41;93868.78;5051357;28;20216;-87
2021/01/21 00:47:23;;;;;;;63.10;23.83;;;3.00;77.60;;;2.11;61.22;93872.81;5035375;28;20199;-87
2021/01/21 00:49:51;;;;;;;49.97;23.85;;;3.00;77.50;;;2.12;61.38;93861.50;5050592;28;20222;-87
2021/01/21 00:52:18;;;;;;;56.60;24.05;;;3.10;77.60;;;2.11;61.17;93857.28;5035020;28;20196;-87
2021/01/21 00:54:45;;;;;;;59.53;24.52;;;3.00;77.60;;;2.10;61.35;93851.31;5031741;28;20243;-87
2021/01/21 00:57:12;;;;;;;47.00;24.77;;;3.10;78.40;;;2.16;61.46;93862.75;5035832;28;20544;-87
2021/01/21 00:59:39;;;;;;;52.33;23.25;;;3.00;77.60;;;2.17;61.50;93861.78;5035915;28;20223;-87
2021/01/21 01:02:07;;;;;;;50.58;22.92;;;3.00;77.60;;;2.18;61.63;93860.81;5036114;28;20204;-87
2021/01/21 01:04:35;;;;;;;46.40;22.08;;;3.10;77.80;;;2.21;61.27;93857.88;5018860;28;20224;-86
2021/01/21 01:07:05;;;;;;;44.30;21.73;;;3.10;77.70;;;2.24;61.75;93863.53;5020477;28;20188;-86
2021/01/21 01:09:32;;;;;;;49.00;21.88;;;3.10;77.80;;;2.21;61.58;93858.72;5053304;28;20596;-87
2021/01/21 01:12:01;;;;;;;50.85;22.05;;;3.20;77.90;;;2.26;61.43;93855.63;5038126;28;20648;-86
2021/01/21 01:14:33;;;;;;;65.43;23.23;;;3.10;77.80;;;2.29;61.84;93857.88;5021136;28;20231;-86
2021/01/21 01:17:03;;;;;;;61.28;23.25;;;3.20;77.90;;;2.30;61.67;93853.50;5038173;28;20650;-86
2021/01/21 01:19:37;;;;;;;46.03;21.30;;;3.20;77.80;;;2.26;61.76;93845.28;5054922;28;20259;-87
2021/01/21 01:22:05;;;;;;;52.30;21.48;;;3.20;77.90;;;2.31;61.59;93868.06;5036955;28;20200;-86
2021/01/21 01:24:32;;;;;;;49.97;21.58;;;3.30;78.00;;;2.32;61.98;93875.66;5033634;28;20221;-87
2021/01/21 01:26:59;;;;;;;42.58;21.08;;;3.20;77.90;;;2.36;61.89;93873.53;5059798;28;20200;-87
2021/01/21 01:29:29;;;;;;;45.42;20.90;;;3.30;78.10;;;2.37;62.30;93875.97;5052508;28;20192;-87
2021/01/21 01:31:56;;;;;;;43.40;21.60;;;3.30;78.10;;;2.35;61.85;93864.16;5053092;28;20211;-87
2021/01/21 01:34:31;;;;;;;49.83;21.77;;;3.30;78.10;;;2.43;61.82;93878.84;5054846;28;20258;-87
2021/01/21 01:37:18;;;;;;;55.17;21.50;;;3.30;78.10;;;2.46;61.79;93868.19;5040295;28;20214;-87
2021/01/21 01:39:50;;;;;;;53.05;19.65;;;3.30;78.10;;;2.47;61.78;93869.78;5053943;28;20277;-86
2021/01/21 01:42:39;;;;;;;41.30;19.38;;;3.30;78.10;;;2.51;61.95;93871.84;5039515;28;20200;-87
2021/01/21 01:45:10;;;;;;;40.15;19.67;;;3.40;78.20;;;2.54;61.82;93881.09;5037307;28;20219;-87
2021/01/21 01:47:45;;;;;;;52.90;20.85;;;3.40;78.30;;;2.50;61.70;93859.91;5054345;28;20200;-87
2021/01/21 01:50:36;;;;;;;51.85;22.60;;;3.40;78.40;;;2.51;62.21;93868.47;5056884;28;20701;-86
2021/01/21 01:53:07;;;;;;;44.05;19.38;;;3.50;78.20;;;2.54;62.22;93871.53;5053719;28;20291;-86
2021/01/21 01:55:35;;;;;;;57.50;18.38;;;3.50;79.10;;;2.51;62.44;93866.69;5036295;28;20713;-87
2021/01/21 01:58:17;;;;;;;49.25;18.70;;;3.40;78.10;;;2.54;62.27;93871.53;5054800;28;20200;-87
2021/01/21 02:00:53;;;;;;;50.30;19.73;;;3.50;78.30;;;2.55;62.34;93857.63;5053418;28;20302;-87
2021/01/21 02:03:21;;;;;;;41.95;18.55;;;3.50;78.20;;;2.55;62.39;93873.16;5037218;28;20196;-86
2021/01/21 02:06:10;;;;;;;33.17;17.27;;;3.50;78.30;;;2.57;62.19;93875.56;5055893;28;20235;-86
2021/01/21 02:08:37;;;;;;;39.15;18.75;;;3.50;78.30;;;2.58;62.56;93874.59;5020497;28;20199;-86
2021/01/21 02:11:15;;;;;;;35.25;17.70;;;3.50;78.30;;;2.59;62.25;93872.78;5035954;28;20238;-85
2021/01/21 02:14:07;;;;;;;42.33;18.05;;;3.50;78.50;;;2.57;62.34;93865.22;5069576;28;20539;-86
2021/01/21 02:16:54;;;;;;;35.13;17.70;;;3.50;78.70;;;2.59;62.50;93850.31;5036867;28;20216;-86
2021/01/21 02:20:15;;;;;;;35.25;16.58;;;3.50;78.70;;;2.60;62.46;93856.28;5052515;28;20196;-86
2021/01/21 02:23:57;;;;;;;35.45;16.80;;;3.50;78.80;;;2.59;62.39;93857.25;5066373;28;20731;-87
2021/01/21 02:26:45;;;;;;;33.05;16.70;;;3.50;78.70;;;2.58;62.65;93866.81;5043461;28;20222;-87
2021/01/21 02:29:27;;;;;;;37.17;16.83;;;3.60;78.60;;;2.61;62.29;93866.47;5036920;28;20290;-87
2021/01/21 02:32:13;;;;;;;36.70;16.95;;;3.50;78.40;;;2.60;62.38;93859.72;5035894;28;20561;-87
2021/01/21 02:35:09;;;;;;;43.10;15.88;;;3.60;78.80;;;2.61;62.44;93855.31;5055122;28;20231;-87
2021/01/21 02:37:47;;;;;;;44.33;16.27;;;3.50;78.70;;;2.63;62.18;93851.59;5034838;28;20191;-87
2021/01/21 02:40:17;;;;;;;50.78;17.40;;;3.60;78.50;;;2.63;62.34;93846.41;5051863;28;20224;-87
2021/01/21 02:43:10;;;;;;;46.53;16.15;;;3.50;78.40;;;2.64;62.24;93850.63;5052001;28;20210;-87
2021/01/21 02:45:41;;;;;;;47.95;16.67;;;3.50;78.60;;;2.65;62.41;93854.00;5052512;28;20223;-87
2021/01/21 02:48:08;;;;;;;36.03;15.57;;;3.50;79.20;;;2.65;62.55;93846.22;5036495;28;20646;-87
2021/01/21 02:50:44;;;;;;;33.13;15.10;;;3.50;78.40;;;2.66;62.54;93848.69;5021597;28;20223;-87
2021/01/21 02:53:12;;;;;;;42.33;14.85;;;3.60;78.50;;;2.68;62.42;93848.50;5035735;28;20196;-87
2021/01/21 02:55:52;;;;;;;41.88;15.35;;;3.60;79.40;;;2.70;62.21;93864.69;5048449;28;20382;-87
2021/01/21 02:58:36;;;;;;;48.45;14.52;;;3.60;78.80;;;2.69;62.29;93869.03;5068695;28;20708;-87
2021/01/21 03:01:10;;;;;;;38.10;16.48;;;3.60;78.80;;;2.66;62.27;93864.22;5035644;28;20219;-86
2021/01/21 03:03:40;;;;;;;87.47;16.90;;;3.60;78.50;;;2.69;62.39;93869.03;5052639;28;20208;-87
2021/01/21 03:06:13;;;;;;;46.33;15.75;;;3.60;79.40;;;2.69;62.10;93860.47;5036249;28;20304;-86
2021/01/21 03:08:42;;;;;;;53.58;15.98;;;3.70;78.60;;;2.71;62.30;93868.84;5052082;28;20629;-86
2021/01/21 03:11:15;;;;;;;51.38;17.05;;;3.60;78.60;;;2.66;62.19;93858.22;5033732;28;20282;-87
2021/01/21 03:13:49;;;;;;;61.53;15.48;;;3.60;78.60;;;2.71;62.53;93861.09;5052564;28;20196;-87
2021/01/21 03:16:19;;;;;;;63.53;16.52;;;3.60;78.60;;;2.71;62.58;93872.28;5052195;28;20254;-86
2021/01/21 03:18:53;;;;;;;48.38;16.13;;;3.60;78.70;;;2.68;62.65;93857.06;5036509;28;20195;-86
2021/01/21 03:21:20;;;;;;;53.58;17.40;;;3.60;78.70;;;2.74;62.75;93867.75;5034794;28;20258;-86
2021/01/21 03:23:52;;;;;;;74.45;16.50;;;3.70;78.70;;;2.74;62.67;93867.75;5037178;28;20250;-86
2021/01/21 03:26:27;;;;;;;54.03;15.93;;;3.60;78.70;;;2.71;62.85;93866.25;5034529;28;20599;-87
2021/01/21 03:29:07;;;;;;;53.00;15.35;;;3.60;78.70;;;2.74;62.59;93870.31;5049252;28;20197;-86
2021/01/21 03:31:35;;;;;;;62.50;15.25;;;3.70;78.80;;;2.70;62.79;93859.50;5032796;28;20223;-87
2021/01/21 03:34:03;;;;;;;45.38;14.88;;;3.70;78.80;;;2.75;62.81;93864.16;5045812;28;20200;-86
2021/01/21 03:36:33;;;;;;;53.28;14.88;;;3.60;78.80;;;2.75;62.75;93862.38;5035544;28;20285;-86
2021/01/21 03:39:00;;;;;;;58.90;15.07;;;3.70;78.80;;;2.74;62.76;93862.56;5038926;28;20249;-88
2021/01/21 03:41:50;;;;;;;51.40;16.83;;;3.60;78.70;;;2.71;62.69;93854.16;5063248;28;20192;-86
2021/01/21 03:44:30;;;;;;;61.42;15.80;;;3.60;78.70;;;2.69;62.73;93852.72;5058480;28;20219;-87
2021/01/21 03:47:00;;;;;;;38.65;13.32;;;3.60;78.70;;;2.71;62.87;93853.31;5041949;28;20224;-85
2021/01/21 03:49:44;;;;;;;52.65;16.20;;;3.70;78.90;;;2.70;62.90;93849.94;5037998;28;20312;-86
2021/01/21 03:52:15;;;;;;;44.42;15.45;;;3.70;79.60;;;2.68;63.03;93854.47;5054820;28;20219;-85
2021/01/21 03:55:04;;;;;;;44.78;15.45;;;3.60;78.80;;;2.68;63.04;93840.72;5053778;28;20246;-86
2021/01/21 03:57:32;;;;;;;50.95;15.30;;;3.60;78.80;;;2.69;63.20;93843.16;5038914;28;20192;-86
2021/01/21 04:00:16;;;;;;;40.95;15.93;;;3.60;78.80;;;2.68;62.99;93833.75;5035799;28;20239;-86
2021/01/21 04:02:47;;;;;;;67.93;14.57;;;3.60;78.70;;;2.66;62.52;93830.56;5020731;28;20216;-86
2021/01/21 04:05:23;;;;;;;64.40;16.52;;;3.60;78.80;;;2.66;62.99;93827.97;5066141;28;20654;-86
2021/01/21 04:07:52;;;;;;;61.38;15.27;;;3.60;78.80;;;2.66;63.03;93820.19;5054295;28;20616;-85
2021/01/21 04:10:19;;;;;;;79.13;17.08;;;3.60;78.80;;;2.62;62.96;93823.28;5037970;28;20220;-85
2021/01/21 04:12:56;;;;;;;74.78;15.40;;;3.60;78.90;;;2.63;62.87;93830.88;5055553;28;20283;-86
2021/01/21 04:15:23;;;;;;;91.82;15.98;;;3.60;78.90;;;2.62;63.08;93831.06;5035447;28;20224;-86
2021/01/21 04:17:50;;;;;;;69.10;15.52;;;3.50;78.80;;;2.63;62.86;93836.06;5022110;28;20229;-85
2021/01/21 04:20:17;;;;;;;85.85;16.05;;;3.60;78.90;;;2.62;63.04;93831.06;5048504;28;20212;-86
2021/01/21 04:22:48;;;;;;;61.13;14.82;;;3.50;78.90;;;2.62;62.96;93825.88;5054857;28;20254;-85
2021/01/21 04:25:16;;;;;;;58.13;13.82;;;3.60;78.90;;;2.54;62.77;93818.97;5036550;28;20220;-86
2021/01/21 04:27:50;;;;;;;55.90;13.77;;;3.60;78.90;;;2.59;62.85;93821.84;5037691;28;20219;-86
2021/01/21 04:30:21;;;;;;;70.63;15.20;;;3.50;78.80;;;2.57;62.99;93818.63;5035934;28;20229;-85
2021/01/21 04:32:48;;;;;;;49.63;14.98;;;3.50;78.80;;;2.56;63.08;93811.81;5043233;28;20219;-86
2021/01/21 04:35:18;;;;;;;70.30;14.82;;;3.50;78.80;;;2.55;63.06;93805.84;5033675;28;20383;-85
2021/01/21 04:37:48;;;;;;;65.90;14.55;;;3.50;78.90;;;2.57;63.05;93813.44;5036099;28;20199;-85
2021/01/21 04:40:28;;;;;;;74.88;14.73;;;3.50;78.90;;;2.52;63.36;93808.75;5039794;28;20312;-86
2021/01/21 04:43:21;;;;;;;72.97;15.32;;;3.50;79.00;;;2.53;63.16;93823.31;5055579;28;20204;-85
2021/01/21 04:45:51;;;;;;;64.55;14.70;;;3.60;79.00;;;2.48;63.31;93817.84;5053415;28;20231;-86
2021/01/21 04:48:19;;;;;;;57.33;14.52;;;3.50;78.90;;;2.53;63.06;93827.72;5054201;28;20196;-86
2021/01/21 04:50:53;;;;;;;68.68;14.88;;;3.50;79.00;;;2.51;63.33;93820.09;5039099;28;20228;-85
2021/01/21 04:53:26;;;;;;;58.45;14.73;;;3.50;79.10;;;2.52;63.63;93820.91;5054966;28;20203;-86
2021/01/21 04:56:07;;;;;;;61.58;15.77;;;3.50;79.00;;;2.47;63.42;93808.47;5036620;28;20239;-84
2021/01/21 04:58:52;;;;;;;75.35;16.27;;;3.50;79.10;;;2.51;63.23;93824.47;5070155;28;20188;-86
2021/01/21 05:01:39;;;;;;;63.95;14.40;;;3.50;79.20;;;2.46;63.30;93816.41;5036695;28;20205;-86
2021/01/21 05:04:08;;;;;;;47.13;13.27;;;3.50;79.10;;;2.50;63.23;93823.69;5056769;28;20625;-86
2021/01/21 05:06:46;;;;;;;57.70;14.20;;;3.50;79.10;;;2.51;63.27;93827.06;5043659;28;20212;-86
2021/01/21 05:09:17;;;;;;;42.63;14.85;;;3.40;79.00;;;2.48;63.53;93825.63;5028939;28;20192;-85
2021/01/21 05:11:47;;;;;;;30.88;13.52;;;3.50;79.10;;;2.46;63.25;93819.78;5036112;28;20200;-86
2021/01/21 05:14:25;;;;;;;45.67;14.40;;;3.50;79.10;;;2.45;63.90;93815.59;5052788;28;20215;-86
2021/01/21 05:17:05;;;;;;;44.90;13.88;;;3.50;79.10;;;2.46;63.25;93806.84;5052371;28;20200;-85
2021/01/21 05:19:54;;;;;;;59.60;14.40;;;3.50;79.20;;;2.46;63.36;93813.81;5038302;28;20220;-85
2021/01/21 05:22:59;;;;;;;40.83;13.38;;;3.40;79.10;;;2.44;63.71;93805.41;4935249;29;20216;-86
2021/01/21 05:26:04;;;;;;;59.90;13.02;;;3.50;79.20;;;2.45;63.54;93813.00;5014018;28;20651;-85
2021/01/21 05:28:44;;;;;;;48.05;14.65;;;3.40;79.10;;;2.44;63.51;93815.78;4996365;28;20240;-86
2021/01/21 05:31:33;;;;;;;54.13;14.98;;;3.40;79.20;;;2.40;63.69;93810.13;5047648;28;20220;-84
2021/01/21 05:34:05;;;;;;;44.50;15.05;;;3.40;79.20;;;2.44;63.73;93805.41;5048371;28;20205;-85
2021/01/21 05:36:49;;;;;;;59.20;15.23;;;3.50;79.30;;;2.46;63.52;93798.28;5034953;28;20204;-85
2021/01/21 05:39:20;;;;;;;55.03;14.32;;;3.40;79.20;;;2.40;63.51;93799.78;5031820;28;20215;-85
2021/01/21 05:42:17;;;;;;;42.95;13.43;;;3.40;79.20;;;2.45;63.58;93809.63;5052097;28;20192;-85
2021/01/21 05:44:54;;;;;;;66.35;14.82;;;3.40;79.20;;;2.41;63.68;93801.38;5035033;28;20225;-86
2021/01/21 05:47:59;;;;;;;92.30;16.88;;;3.40;79.20;;;2.38;63.74;93804.31;5056537;28;20212;-85
2021/01/21 05:50:30;;;;;;;107.22;17.98;;;3.40;79.30;;;2.38;63.70;93805.13;5053885;28;20233;-85
2021/01/21 05:52:59;;;;;;;61.63;16.40;;;3.40;79.20;;;2.38;63.67;93801.72;5038388;28;20299;-86
2021/01/21 05:55:31;;;;;;;61.70;16.48;;;3.40;79.30;;;2.39;63.80;93801.56;5039066;28;20248;-86
2021/01/21 05:58:02;;;;;;;55.05;16.27;;;3.30;79.20;;;2.36;64.06;93799.31;5036967;28;20200;-86
2021/01/21 06:00:31;;;;;;;67.03;18.30;;;3.30;79.30;;;2.37;63.86;93795.75;5019269;28;20242;-84
2021/01/21 06:03:12;;;;;;;73.20;18.75;;;3.30;79.30;;;2.36;63.93;93796.72;5037916;28;20204;-86
2021/01/21 06:05:51;;;;;;;55.38;16.30;;;3.30;79.30;;;2.38;63.65;93825.00;5053982;28;20314;-85
2021/01/21 06:08:21;;;;;;;53.65;15.55;;;3.30;79.40;;;2.38;63.84;93810.31;5033829;28;20205;-86
2021/01/21 06:10:51;;;;;;;54.03;15.15;;;3.30;79.40;;;2.36;63.55;93809.66;5022689;28;20216;-86
2021/01/21 06:13:18;;;;;;;58.42;14.13;;;3.30;79.40;;;2.37;63.69;93816.44;5036596;28;20204;-86
2021/01/21 06:15:46;;;;;;;45.67;14.07;;;3.30;79.30;;;2.37;63.37;93826.00;5029554;28;20224;-86
2021/01/21 06:18:13;;;;;;;53.58;14.38;;;3.30;79.30;;;2.36;63.58;93808.84;5036297;28;20196;-85
2021/01/21 06:21:10;;;;;;;50.95;14.57;;;3.30;79.30;;;2.35;63.71;93820.97;5050628;28;20220;-85
2021/01/21 06:24:02;;;;;;;44.85;15.90;;;3.30;79.30;;;2.35;63.64;93822.75;5037618;28;20235;-85
2021/01/21 06:26:50;;;;;;;44.28;14.30;;;3.30;79.40;;;2.35;63.73;93836.50;5045561;28;20208;-85
2021/01/21 06:29:19;;;;;;;47.65;17.05;;;3.30;79.30;;;2.35;63.73;93825.34;5036448;28;20204;-85
2021/01/21 06:31:50;;;;;;;38.25;15.95;;;3.30;79.30;;;2.32;63.71;93830.84;5036121;28;20199;-85
2021/01/21 06:34:24;;;;;;;37.40;16.48;;;3.30;79.50;;;2.33;63.78;93838.47;5052156;28;20185;-85
2021/01/21 06:36:59;;;;;;;49.22;15.82;;;3.30;79.50;;;2.39;63.60;93845.56;5034762;28;20274;-85
2021/01/21 06:39:47;;;;;;;51.78;16.55;;;3.30;79.60;;;2.37;63.61;93838.94;5035832;28;20188;-84
2021/01/21 06:42:36;;;;;;;63.33;16.20;;;3.30;79.70;;;2.37;63.82;93852.66;5049261;28;20242;-85
2021/01/21 06:45:07;;;;;;;46.33;15.15;;;3.30;79.70;;;2.38;63.49;93854.28;5035196;28;20643;-84
2021/01/21 06:47:35;;;;;;;33.30;14.13;;;3.30;79.60;;;2.38;63.81;93859.47;5036106;28;20461;-85
2021/01/21 06:50:06;;;;;;;29.40;13.77;;;3.30;79.50;;;2.39;63.51;93866.25;5052420;28;20243;-85
2021/01/21 06:52:37;;;;;;;36.08;14.00;;;3.30;79.70;;;2.42;63.92;93870.28;5052672;28;20204;-85
2021/01/21 06:55:08;;;;;;;32.90;13.68;;;3.30;79.80;;;2.43;63.74;93864.16;5035481;28;20240;-85
2021/01/21 06:57:34;;;;;;;27.17;13.55;;;3.40;79.80;;;2.48;63.67;93869.63;5039780;28;20208;-85
2021/01/21 07:00:12;;;;;;;36.00;12.73;;;3.30;79.70;;;2.51;63.81;93868.47;5068051;28;20281;-85
2021/01/21 07:02:48;;;;;;;38.53;12.15;;;3.30;79.80;;;2.52;63.73;93863.13;5068859;28;20212;-85
2021/01/21 07:05:19;;;;;;;35.15;14.23;;;3.40;79.80;;;2.55;63.71;93857.63;5034702;28;20311;-86
2021/01/21 07:08:06;;;;;;;39.58;13.30;;;3.40;79.80;;;2.56;63.70;93854.06;5048702;28;20197;-85
2021/01/21 07:10:40;;;;;;;46.85;13.02;;;3.40;79.80;;;2.61;63.66;93856.13;5064025;28;20230;-85
2021/01/21 07:13:21;;;;;;;43.30;15.70;;;3.50;79.90;;;2.64;63.58;93848.03;5041738;28;20287;-85
2021/01/21 07:16:00;;;;;;;38.95;13.80;;;3.50;79.90;;;2.66;63.76;93848.69;5031982;28;20311;-86
2021/01/21 07:18:33;;;;;;;33.90;15.43;;;3.50;79.90;;;2.69;63.57;93856.09;5032637;28;20215;-85
2021/01/21 07:21:00;;;;;;;33.40;16.15;;;3.50;79.90;;;2.74;63.90;93860.75;5042039;28;20218;-85
2021/01/21 07:23:55;;;;;;;40.58;18.10;;;3.50;79.90;;;2.77;63.59;93867.38;5064325;28;20267;-86
2021/01/21 07:26:31;;;;;;;40.33;14.85;;;3.60;80.00;;;2.81;63.56;93869.47;5027170;28;20250;-86
2021/01/21 07:29:09;;;;;;;43.55;18.13;;;3.60;80.00;;;2.83;63.69;93858.94;5059215;28;20206;-85
2021/01/21 07:31:52;;;;;;;39.13;17.80;;;3.60;80.00;;;2.90;63.57;93867.63;5070173;28;20293;-85
2021/01/21 07:34:37;;;;;;;47.47;16.10;;;3.70;80.10;;;2.95;63.79;93873.09;5025520;28;20231;-86
2021/01/21 07:37:25;;;;;;;56.45;14.30;;;3.70;80.00;;;2.97;63.80;93872.97;5066515;28;20271;-86
2021/01/21 07:39:54;;;;;;;68.57;13.77;;;3.70;80.00;;;3.03;63.40;93886.03;5033999;28;20212;-84
2021/01/21 07:42:43;;;;;;;59.95;14.02;;;3.80;80.10;;;3.07;63.85;93880.50;5070132;28;20291;-85
2021/01/21 07:45:18;;;;;;;66.93;13.77;;;3.80;80.10;;;3.14;63.59;93879.66;5067981;28;20220;-85
2021/01/21 07:47:46;;;;;;;70.00;14.90;;;3.90;80.10;;;3.19;63.44;93887.69;5067982;28;20287;-85
2021/01/21 07:50:16;;;;;;;74.18;22.85;;;3.90;80.10;;;3.26;63.38;93887.00;5034358;28;20219;-84
2021/01/21 07:52:52;;;;;;;65.28;20.00;;;3.90;80.10;;;3.29;63.52;93889.28;5067624;28;20199;-85
2021/01/21 07:55:34;;;;;;;62.33;15.18;;;4.00;80.20;;;3.36;63.66;93890.19;5047578;28;20215;-85
2021/01/21 07:58:20;;;;;;;60.75;13.52;;;4.00;80.20;;;3.41;63.69;93889.69;5056587;28;20212;-85
2021/01/21 08:00:56;;;;;;;47.40;13.50;;;4.10;80.20;;;3.43;63.32;93888.53;5065463;28;20212;-85
2021/01/21 08:03:40;;;;;;;43.88;13.18;;;4.10;80.30;;;3.50;63.40;93896.41;5032593;28;20501;-85
2021/01/21 08:06:12;;;;;;;77.05;12.95;;;4.20;80.30;;;3.57;63.50;93893.94;5029395;28;20322;-85
2021/01/21 08:08:44;;;;;;;61.33;13.20;;;4.20;80.30;;;3.62;63.76;93895.00;5031740;28;20258;-85
2021/01/21 08:11:17;;;;;;;83.15;13.77;;;4.30;80.40;;;3.67;63.65;93890.13;5033188;28;20279;-85
2021/01/21 08:13:47;;;;;;;64.32;12.65;;;4.30;80.40;;;3.77;63.55;93889.06;5032602;28;20281;-85
2021/01/21 08:16:18;;;;;;;66.00;13.80;;;4.40;81.20;;;3.81;63.47;93885.97;5033150;28;20698;-85
2021/01/21 08:18:45;;;;;;;60.47;13.15;;;4.50;80.50;;;3.89;63.60;93879.09;5016973;28;20196;-85
2021/01/21 08:21:19;;;;;;;74.18;13.55;;;4.50;80.50;;;3.93;63.72;93880.34;5046426;28;20223;-84
2021/01/21 08:23:58;;;;;;;57.10;14.68;;;4.50;80.50;;;3.95;63.78;93874.00;5034879;28;20696;-84
2021/01/21 08:26:31;;;;;;;49.15;16.90;;;4.60;80.60;;;3.94;63.65;93866.38;5037617;28;20318;-83
2021/01/21 08:28:59;;;;;;;77.30;15.90;;;4.60;80.60;;;4.05;63.82;93883.31;5051474;28;20585;-85
2021/01/21 08:31:48;;;;;;;61.05;14.85;;;4.70;80.50;;;4.10;63.97;93884.41;5045151;28;20216;-83
2021/01/21 08:34:22;;;;;;;73.47;15.55;;;4.70;80.60;;;4.16;63.58;93883.69;5052559;28;20203;-84
2021/01/21 08:36:49;;;;;;;59.75;15.15;;;4.80;80.70;;;4.23;63.83;93886.38;5031044;28;20204;-85
2021/01/21 08:39:17;;;;;;;51.55;14.32;;;4.80;80.60;;;4.27;63.82;93876.44;5044579;28;20201;-84
2021/01/21 08:41:45;;;;;;;81.53;13.60;;;4.90;80.70;;;4.36;63.92;93882.34;5032326;28;20646;-85
2021/01/21 08:44:20;;;;;;;58.33;12.60;;;4.90;80.50;;;4.41;63.88;93880.03;5036417;28;20211;-85
2021/01/21 08:47:00;;;;;;;56.72;12.70;;;5.00;80.50;;;4.45;63.35;93887.28;5027486;28;20200;-85
2021/01/21 08:49:34;;;;;;;74.22;13.35;;;5.00;80.60;;;4.49;63.95;93885.94;5020635;28;20265;-85
2021/01/21 08:52:09;;;;;;;42.90;11.93;;;5.10;80.60;;;4.58;63.55;93891.06;5037066;28;20200;-85
2021/01/21 08:54:51;;;;;;;45.03;11.65;;;5.10;80.80;;;4.64;63.94;93896.31;5035099;28;20230;-84
2021/01/21 08:57:21;;;;;;;37.28;12.13;;;5.20;80.80;;;4.76;63.77;93896.66;5068881;28;20206;-84
2021/01/21 08:59:48;;;;;;;54.63;12.30;;;5.30;80.80;;;4.85;63.66;93889.56;5053935;28;20282;-84
2021/01/21 09:02:41;;;;;;;32.20;12.52;;;5.30;80.70;;;4.89;63.38;93888.22;5049235;28;20204;-84
2021/01/21 09:05:09;;;;;;;45.40;12.55;;;5.40;80.60;;;4.94;63.59;93879.88;5033935;28;20218;-84
2021/01/21 09:07:37;;;;;;;46.42;12.27;;;5.50;80.50;;;4.91;63.64;93867.28;5036181;28;20196;-84
2021/01/21 09:10:11;;;;;;;54.70;12.75;;;5.50;80.30;;;5.00;63.41;93875.75;5035291;28;20243;-84
2021/01/21 09:12:38;;;;;;;43.00;11.38;;;5.60;80.30;;;5.01;64.03;93879.97;5018463;28;20202;-84
2021/01/21 09:15:07;;;;;;;32.92;12.05;;;5.60;80.40;;;5.02;63.46;93882.38;5034576;28;20219;-85
2021/01/21 09:17:39;;;;;;;29.92;11.48;;;5.60;80.30;;;5.03;63.63;93875.38;5045264;28;20203;-85
2021/01/21 09:20:24;;;;;;;37.70;12.73;;;5.70;80.30;;;5.08;63.54;93883.44;5036319;28;20216;-86
2021/01/21 09:23:20;;;;;;;48.10;13.07;;;5.70;80.10;;;5.11;63.63;93888.25;5053898;28;20200;-85
2021/01/21 09:25:48;;;;;;;34.60;12.63;;;5.70;80.20;;;5.15;63.39;93893.91;5042922;28;20224;-84
2021/01/21 09:28:16;;;;;;;31.20;11.77;;;5.80;80.30;;;5.18;63.70;93894.34;5052117;28;20192;-84
2021/01/21 09:30:43;;;;;;;35.67;13.55;;;5.80;80.40;;;5.22;63.64;93885.19;5051324;28;20251;-85
2021/01/21 09:33:11;;;;;;;38.97;12.95;;;5.80;80.50;;;5.34;63.55;93892.50;5018202;28;20286;-85
2021/01/21 09:35:40;;;;;;;35.22;12.70;;;5.90;80.50;;;5.40;63.85;93902.97;5043610;28;20882;-85
2021/01/21 09:38:07;;;;;;;21.83;11.23;;;5.90;80.40;;;5.43;63.53;93905.22;5047420;28;20205;-85
2021/01/21 09:40:35;;;;;;;31.90;11.80;;;6.00;80.40;;;5.44;63.78;93901.63;5015718;28;20252;-85
2021/01/21 09:43:04;;;;;;;43.10;12.05;;;6.10;80.30;;;5.48;63.61;93902.06;5025821;28;20302;-86
2021/01/21 09:45:32;;;;;;;32.33;11.90;;;6.10;80.30;;;5.53;63.57;93904.91;5035232;28;20230;-86
2021/01/21 09:48:01;;;;;;;29.25;12.60;;;6.10;80.30;;;5.58;63.17;93918.16;5034618;28;20196;-85
2021/01/21 09:50:29;;;;;;;31.10;11.65;;;6.10;80.30;;;5.58;63.05;93904.34;5017450;28;20222;-86
2021/01/21 09:52:56;;;;;;;32.15;12.20;;;6.20;80.20;;;5.60;63.55;93904.97;5034640;28;20199;-86
2021/01/21 09:55:23;;;;;;;24.33;11.48;;;6.20;80.10;;;5.58;63.21;93896.56;5050463;28;20578;-86
2021/01/21 09:57:51;;;;;;;32.85;11.38;;;6.20;80.10;;;5.64;63.35;93900.19;5033867;28;20203;-86
2021/01/21 10:00:20;;;;;;;23.08;10.52;;;6.30;80.10;;;5.69;63.32;93901.25;5051292;28;20218;-86
2021/01/21 10:02:46;;;;;;;25.45;11.77;;;6.30;80.30;;;5.77;63.40;93892.50;5051130;28;20204;-86
2021/01/21 10:05:13;;;;;;;27.35;11.85;;;6.30;80.40;;;5.81;63.20;93896.34;5035350;28;20216;-86
2021/01/21 10:07:41;;;;;;;23.25;11.45;;;6.40;80.20;;;5.80;62.85;93904.31;5034560;28;20234;-86
2021/01/21 10:10:08;;;;;;;32.97;12.65;;;6.40;80.00;;;5.71;62.88;93890.66;5014837;28;20749;-86
2021/01/21 10:12:35;;;;;;;31.13;12.30;;;6.40;79.70;;;5.60;62.72;93889.34;5023606;28;20271;-86
2021/01/21 10:15:03;;;;;;;23.75;12.40;;;6.40;80.30;;;5.55;63.02;93896.91;5038013;28;20212;-86
2021/01/21 10:17:31;;;;;;;24.80;11.25;;;6.40;79.40;;;5.42;63.08;93880.19;5033976;28;20204;-86
2021/01/21 10:19:58;;;;;;;23.40;11.57;;;6.30;79.40;;;5.50;63.24;93902.66;5035841;28;20632;-85
2021/01/21 10:22:26;;;;;;;29.92;11.60;;;6.30;79.50;;;5.49;63.38;93897.66;5036961;28;20231;-86
2021/01/21 10:24:52;;;;;;;23.20;12.38;;;6.30;79.60;;;5.52;63.62;93894.69;5019944;28;20316;-87
2021/01/21 10:27:22;;;;;;;20.63;13.10;;;6.40;79.90;;;5.66;63.33;93900.81;5076098;28;20191;-87
2021/01/21 10:29:49;;;;;;;25.38;12.32;;;6.30;79.90;;;5.74;63.57;93893.69;5034583;28;20811;-86
2021/01/21 10:32:32;;;;;;;29.25;13.10;;;6.40;80.00;;;5.82;63.42;93886.75;5038338;28;20199;-86
2021/01/21 10:35:00;;;;;;;33.38;13.27;;;6.40;80.10;;;5.93;63.16;93897.47;5036339;28;20281;-86
2021/01/21 10:37:27;;;;;;;38.05;13.05;;;6.40;80.10;;;6.00;63.07;93887.13;5066384;28;20253;-87
2021/01/21 10:39:55;;;;;;;35.15;11.85;;;6.50;80.10;;;6.07;63.14;93880.16;5051636;28;20240;-86
2021/01/21 10:42:22;;;;;;;35.33;12.02;;;6.50;80.00;;;6.18;62.78;93885.84;5034011;28;20291;-87
2021/01/21 10:44:49;;;;;;;24.98;11.63;;;6.60;80.00;;;6.24;62.70;93887.69;5041021;28;20247;-87
2021/01/21 10:47:16;;;;;;;23.63;11.77;;;6.60;80.00;;;6.25;62.70;93881.50;5033817;28;20250;-87
2021/01/21 10:49:43;;;;;;;41.25;12.30;;;6.70;80.00;;;6.41;63.14;93891.59;5050819;28;20239;-86